sensor_id;sensor_type;location;lat;lon;timestamp;pressure;altitude;pressure_sealevel;temperature;humidity
81352;BME280;70809;52.184;13.422;2024-02-04T00:00:07;101433.69;;;7.29;88.93
81352;BME280;70809;52.184;13.422;2024-02-04T00:01:12;101431.66;;;7.22;89.53
81352;BME280;70809;52.184;13.422;2024-02-04T00:02:15;101436.75;;;7.17;90.08
81352;BME280;70809;52.184;13.422;2024-02-04T00:03:17;101438.47;;;7.16;89.71
81352;BME280;70809;52.184;13.422;2024-02-04T00:04:18;101431.56;;;7.18;88.24
81352;BME280;70809;52.184;13.422;2024-02-04T00:05:20;101435.16;;;7.22;87.58
81352;BME280;70809;52.184;13.422;2024-02-04T00:06:22;101437.56;;;7.16;88.30
81352;BME280;70809;52.184;13.422;2024-02-04T00:07:23;101441.94;;;7.15;88.82
81352;BME280;70809;52.184;13.422;2024-02-04T00:08:25;101439.78;;;7.05;89.31
81352;BME280;70809;52.184;13.422;2024-02-04T00:09:27;101427.38;;;7.01;89.97
81352;BME280;70809;52.184;13.422;2024-02-04T00:10:28;101429.41;;;7.08;88.60
81352;BME280;70809;52.184;13.422;2024-02-04T00:11:30;101433.38;;;6.99;89.62
81352;BME280;70809;52.184;13.422;2024-02-04T00:12:31;101427.13;;;6.95;89.33
81352;BME280;70809;52.184;13.422;2024-02-04T00:13:33;101420.09;;;6.94;89.19
81352;BME280;70809;52.184;13.422;2024-02-04T00:14:35;101431.50;;;6.95;89.29
81352;BME280;70809;52.184;13.422;2024-02-04T00:15:36;101427.06;;;6.93;89.71
81352;BME280;70809;52.184;13.422;2024-02-04T00:16:38;101427.25;;;6.98;89.34
81352;BME280;70809;52.184;13.422;2024-02-04T00:17:41;101436.63;;;6.91;90.03
81352;BME280;70809;52.184;13.422;2024-02-04T00:18:43;101442.81;;;6.93;89.81
81352;BME280;70809;52.184;13.422;2024-02-04T00:19:44;101440.31;;;6.97;90.08
81352;BME280;70809;52.184;13.422;2024-02-04T00:20:46;101431.25;;;6.88;90.62
81352;BME280;70809;52.184;13.422;2024-02-04T00:21:48;101444.19;;;6.84;91.32
81352;BME280;70809;52.184;13.422;2024-02-04T00:22:49;101437.16;;;6.83;91.98
81352;BME280;70809;52.184;13.422;2024-02-04T00:23:51;101429.16;;;6.80;91.86
81352;BME280;70809;52.184;13.422;2024-02-04T00:24:53;101427.59;;;6.85;91.45
81352;BME280;70809;52.184;13.422;2024-02-04T00:25:54;101417.81;;;6.81;92.24
81352;BME280;70809;52.184;13.422;2024-02-04T00:26:56;101414.47;;;6.85;92.04
81352;BME280;70809;52.184;13.422;2024-02-04T00:27:58;101421.28;;;6.80;92.29
81352;BME280;70809;52.184;13.422;2024-02-04T00:29:00;101424.75;;;6.79;91.82
81352;BME280;70809;52.184;13.422;2024-02-04T00:30:01;101419.59;;;6.82;92.01
81352;BME280;70809;52.184;13.422;2024-02-04T00:31:03;101421.41;;;6.83;91.72
81352;BME280;70809;52.184;13.422;2024-02-04T00:32:06;101422.88;;;6.76;92.28
81352;BME280;70809;52.184;13.422;2024-02-04T00:33:09;101435.88;;;6.73;92.58
81352;BME280;70809;52.184;13.422;2024-02-04T00:34:10;101422.72;;;6.72;92.87
81352;BME280;70809;52.184;13.422;2024-02-04T00:35:12;101426.13;;;6.71;92.88
81352;BME280;70809;52.184;13.422;2024-02-04T00:36:14;101421.72;;;6.70;93.17
81352;BME280;70809;52.184;13.422;2024-02-04T00:37:16;101435.88;;;6.73;93.12
81352;BME280;70809;52.184;13.422;2024-02-04T00:38:18;101436.84;;;6.75;92.75
81352;BME280;70809;52.184;13.422;2024-02-04T00:39:19;101431.53;;;6.74;93.04
81352;BME280;70809;52.184;13.422;2024-02-04T00:40:21;101441.19;;;6.75;91.93
81352;BME280;70809;52.184;13.422;2024-02-04T00:41:22;101433.31;;;6.75;91.68
81352;BME280;70809;52.184;13.422;2024-02-04T00:42:24;101436.84;;;6.75;92.63
81352;BME280;70809;52.184;13.422;2024-02-04T00:43:26;101437.81;;;6.77;91.69
81352;BME280;70809;52.184;13.422;2024-02-04T00:44:27;101430.03;;;6.80;92.46
81352;BME280;70809;52.184;13.422;2024-02-04T00:45:29;101441.19;;;6.75;92.57
81352;BME280;70809;52.184;13.422;2024-02-04T00:46:30;101429.69;;;6.71;92.14
81352;BME280;70809;52.184;13.422;2024-02-04T00:47:32;101434.03;;;6.71;92.36
81352;BME280;70809;52.184;13.422;2024-02-04T00:48:35;101440.06;;;6.68;92.46
81352;BME280;70809;52.184;13.422;2024-02-04T00:49:37;101440.94;;;6.69;92.65
81352;BME280;70809;52.184;13.422;2024-02-04T00:50:39;101447.16;;;6.71;91.94
81352;BME280;70809;52.184;13.422;2024-02-04T00:51:40;101445.44;;;6.71;92.28
81352;BME280;70809;52.184;13.422;2024-02-04T00:52:42;101445.44;;;6.71;92.73
81352;BME280;70809;52.184;13.422;2024-02-04T00:53:43;101444.22;;;6.63;93.23
81352;BME280;70809;52.184;13.422;2024-02-04T00:54:45;101443.38;;;6.64;93.13
81352;BME280;70809;52.184;13.422;2024-02-04T00:55:47;101442.44;;;6.62;93.19
81352;BME280;70809;52.184;13.422;2024-02-04T00:56:48;101441.50;;;6.60;93.06
81352;BME280;70809;52.184;13.422;2024-02-04T00:57:50;101439.50;;;6.54;93.92
81352;BME280;70809;52.184;13.422;2024-02-04T00:58:52;101433.41;;;6.55;93.96
81352;BME280;70809;52.184;13.422;2024-02-04T00:59:53;101434.56;;;6.41;94.13
81352;BME280;70809;52.184;13.422;2024-02-04T01:00:55;101428.38;;;6.39;94.96
81352;BME280;70809;52.184;13.422;2024-02-04T01:01:57;101432.78;;;6.40;94.46
81352;BME280;70809;52.184;13.422;2024-02-04T01:02:58;101424.06;;;6.41;94.75
81352;BME280;70809;52.184;13.422;2024-02-04T01:04:01;101420.34;;;6.36;94.35
81352;BME280;70809;52.184;13.422;2024-02-04T01:05:04;101428.47;;;6.42;94.72
81352;BME280;70809;52.184;13.422;2024-02-04T01:06:06;101421.97;;;6.32;94.62
81352;BME280;70809;52.184;13.422;2024-02-04T01:07:07;101431.09;;;6.42;95.19
81352;BME280;70809;52.184;13.422;2024-02-04T01:08:09;101425.16;;;6.46;94.91
81352;BME280;70809;52.184;13.422;2024-02-04T01:09:11;101421.53;;;6.43;94.94
81352;BME280;70809;52.184;13.422;2024-02-04T01:10:12;101420.19;;;6.31;95.66
81352;BME280;70809;52.184;13.422;2024-02-04T01:11:14;101413.50;;;6.39;95.35
81352;BME280;70809;52.184;13.422;2024-02-04T01:12:16;101414.59;;;6.24;95.89
81352;BME280;70809;52.184;13.422;2024-02-04T01:13:17;101416.53;;;6.28;95.54
81352;BME280;70809;52.184;13.422;2024-02-04T01:14:19;101414.78;;;6.28;95.25
81352;BME280;70809;52.184;13.422;2024-02-04T01:15:21;101419.94;;;6.25;96.13
81352;BME280;70809;52.184;13.422;2024-02-04T01:16:22;101414.34;;;6.18;96.26
81352;BME280;70809;52.184;13.422;2024-02-04T01:17:24;101414.91;;;6.10;97.11
81352;BME280;70809;52.184;13.422;2024-02-04T01:18:25;101420.84;;;6.06;96.98
81352;BME280;70809;52.184;13.422;2024-02-04T01:19:28;101417.34;;;6.06;97.21
81352;BME280;70809;52.184;13.422;2024-02-04T01:20:30;101413.13;;;6.09;97.15
81352;BME280;70809;52.184;13.422;2024-02-04T01:21:32;101414.13;;;6.13;96.36
81352;BME280;70809;52.184;13.422;2024-02-04T01:22:33;101404.28;;;6.07;96.56
81352;BME280;70809;52.184;13.422;2024-02-04T01:23:35;101415.59;;;6.06;96.64
81352;BME280;70809;52.184;13.422;2024-02-04T01:24:36;101424.31;;;6.05;96.68
81352;BME280;70809;52.184;13.422;2024-02-04T01:25:38;101422.53;;;6.04;96.56
81352;BME280;70809;52.184;13.422;2024-02-04T01:26:44;101418.94;;;6.02;97.03
81352;BME280;70809;52.184;13.422;2024-02-04T01:27:46;101429.50;;;6.04;96.71
81352;BME280;70809;52.184;13.422;2024-02-04T01:28:47;101427.72;;;6.03;96.24
81352;BME280;70809;52.184;13.422;2024-02-04T01:29:49;101424.06;;;5.99;96.53
81352;BME280;70809;52.184;13.422;2024-02-04T01:30:50;101416.03;;;5.96;97.13
81352;BME280;70809;52.184;13.422;2024-02-04T01:31:52;101417.03;;;5.98;96.58
81352;BME280;70809;52.184;13.422;2024-02-04T01:32:54;101414.41;;;5.98;96.52
81352;BME280;70809;52.184;13.422;2024-02-04T01:33:55;101417.97;;;6.00;97.03
81352;BME280;70809;52.184;13.422;2024-02-04T01:34:59;101416.88;;;5.95;96.59
81352;BME280;70809;52.184;13.422;2024-02-04T01:36:01;101412.63;;;5.97;96.42
81352;BME280;70809;52.184;13.422;2024-02-04T01:37:03;101416.75;;;5.92;96.76
81352;BME280;70809;52.184;13.422;2024-02-04T01:38:05;101426.41;;;5.93;96.44
81352;BME280;70809;52.184;13.422;2024-02-04T01:39:07;101420.47;;;5.97;96.34
81352;BME280;70809;52.184;13.422;2024-02-04T01:40:09;101416.75;;;5.92;96.32
81352;BME280;70809;52.184;13.422;2024-02-04T01:41:11;101413.94;;;5.89;95.80
81352;BME280;70809;52.184;13.422;2024-02-04T01:42:13;101420.09;;;5.90;96.08
81352;BME280;70809;52.184;13.422;2024-02-04T01:43:14;101412.16;;;5.88;95.77
81352;BME280;70809;52.184;13.422;2024-02-04T01:44:16;101413.91;;;5.88;95.84
81352;BME280;70809;52.184;13.422;2024-02-04T01:45:18;101429.41;;;5.83;96.46
81352;BME280;70809;52.184;13.422;2024-02-04T01:46:19;101424.31;;;5.86;96.11
81352;BME280;70809;52.184;13.422;2024-02-04T01:47:21;101426.78;;;5.83;95.79
81352;BME280;70809;52.184;13.422;2024-02-04T01:48:23;101425.97;;;5.84;96.18
81352;BME280;70809;52.184;13.422;2024-02-04T01:49:25;101420.88;;;5.87;95.79
81352;BME280;70809;52.184;13.422;2024-02-04T01:50:28;101417.59;;;5.91;96.05
81352;BME280;70809;52.184;13.422;2024-02-04T01:51:30;101426.53;;;5.77;96.20
81352;BME280;70809;52.184;13.422;2024-02-04T01:52:33;101425.00;;;5.82;96.14
81352;BME280;70809;52.184;13.422;2024-02-04T01:53:37;101429.94;;;5.74;96.11
81352;BME280;70809;52.184;13.422;2024-02-04T01:54:41;101421.16;;;5.74;95.96
81352;BME280;70809;52.184;13.422;2024-02-04T01:55:44;101418.34;;;5.69;96.56
81352;BME280;70809;52.184;13.422;2024-02-04T01:56:46;101421.22;;;5.75;96.52
81352;BME280;70809;52.184;13.422;2024-02-04T01:57:48;101420.75;;;5.65;96.69
81352;BME280;70809;52.184;13.422;2024-02-04T01:58:50;101421.16;;;5.54;96.87
81352;BME280;70809;52.184;13.422;2024-02-04T01:59:52;101409.22;;;5.61;97.60
81352;BME280;70809;52.184;13.422;2024-02-04T02:00:55;101419.91;;;5.66;97.72
81352;BME280;70809;52.184;13.422;2024-02-04T02:01:59;101412.06;;;5.66;97.42
81352;BME280;70809;52.184;13.422;2024-02-04T02:03:01;101414.13;;;5.53;98.34
81352;BME280;70809;52.184;13.422;2024-02-04T02:04:06;101418.91;;;5.62;98.61
81352;BME280;70809;52.184;13.422;2024-02-04T02:05:08;101410.56;;;5.51;98.06
81352;BME280;70809;52.184;13.422;2024-02-04T02:06:11;101413.31;;;5.54;98.58
81352;BME280;70809;52.184;13.422;2024-02-04T02:07:13;101411.50;;;5.53;98.28
81352;BME280;70809;52.184;13.422;2024-02-04T02:08:15;101422.22;;;5.58;98.72
81352;BME280;70809;52.184;13.422;2024-02-04T02:09:17;101415.25;;;5.58;98.87
81352;BME280;70809;52.184;13.422;2024-02-04T02:10:19;101429.84;;;5.53;99.41
81352;BME280;70809;52.184;13.422;2024-02-04T02:11:27;101422.94;;;5.55;98.73
81352;BME280;70809;52.184;13.422;2024-02-04T02:12:33;101423.72;;;5.53;99.37
81352;BME280;70809;52.184;13.422;2024-02-04T02:13:37;101418.53;;;5.54;99.24
81352;BME280;70809;52.184;13.422;2024-02-04T02:14:44;101417.34;;;5.67;98.09
81352;BME280;70809;52.184;13.422;2024-02-04T02:15:49;101428.41;;;5.60;98.65
81352;BME280;70809;52.184;13.422;2024-02-04T02:16:53;101430.81;;;5.55;98.73
81352;BME280;70809;52.184;13.422;2024-02-04T02:17:59;101428.19;;;5.55;98.90
81352;BME280;70809;52.184;13.422;2024-02-04T02:19:11;101426.81;;;5.64;98.66
81352;BME280;70809;52.184;13.422;2024-02-04T02:20:22;101420.06;;;5.69;97.86
81352;BME280;70809;52.184;13.422;2024-02-04T02:21:46;101419.66;;;5.59;98.42
81352;BME280;70809;52.184;13.422;2024-02-04T02:22:49;101424.06;;;5.60;98.62
81352;BME280;70809;52.184;13.422;2024-02-04T02:24:03;101424.78;;;5.56;98.19
81352;BME280;70809;52.184;13.422;2024-02-04T02:25:07;101413.56;;;5.60;98.40
81352;BME280;70809;52.184;13.422;2024-02-04T02:26:10;101423.66;;;5.51;99.56
81352;BME280;70809;52.184;13.422;2024-02-04T02:27:11;101414.41;;;5.59;99.02
81352;BME280;70809;52.184;13.422;2024-02-04T02:28:13;101419.53;;;5.56;98.90
81352;BME280;70809;52.184;13.422;2024-02-04T02:29:15;101424.63;;;5.53;98.54
81352;BME280;70809;52.184;13.422;2024-02-04T02:30:17;101416.06;;;5.57;99.47
81352;BME280;70809;52.184;13.422;2024-02-04T02:31:18;101411.09;;;5.64;98.58
81352;BME280;70809;52.184;13.422;2024-02-04T02:32:35;101427.28;;;5.55;98.72
81352;BME280;70809;52.184;13.422;2024-02-04T02:33:37;101415.44;;;5.63;98.21
81352;BME280;70809;52.184;13.422;2024-02-04T02:34:38;101422.53;;;5.66;98.50
81352;BME280;70809;52.184;13.422;2024-02-04T02:35:41;101425.03;;;5.63;98.74
81352;BME280;70809;52.184;13.422;2024-02-04T02:36:44;101422.31;;;5.61;98.92
81352;BME280;70809;52.184;13.422;2024-02-04T02:37:56;101412.63;;;5.58;98.70
81352;BME280;70809;52.184;13.422;2024-02-04T02:39:08;101414.13;;;5.53;98.72
81352;BME280;70809;52.184;13.422;2024-02-04T02:40:16;101403.66;;;5.53;99.44
81352;BME280;70809;52.184;13.422;2024-02-04T02:41:20;101398.84;;;5.63;99.15
81352;BME280;70809;52.184;13.422;2024-02-04T02:42:23;101389.09;;;5.60;98.93
81352;BME280;70809;52.184;13.422;2024-02-04T02:43:26;101394.75;;;5.69;98.46
81352;BME280;70809;52.184;13.422;2024-02-04T02:44:28;101399.19;;;5.51;98.97
81352;BME280;70809;52.184;13.422;2024-02-04T02:45:30;101386.13;;;5.52;99.27
81352;BME280;70809;52.184;13.422;2024-02-04T02:46:33;101380.34;;;5.59;98.71
81352;BME280;70809;52.184;13.422;2024-02-04T02:47:35;101379.38;;;5.57;98.81
81352;BME280;70809;52.184;13.422;2024-02-04T02:48:37;101376.50;;;5.51;99.06
81352;BME280;70809;52.184;13.422;2024-02-04T02:49:39;101387.66;;;5.47;98.29
81352;BME280;70809;52.184;13.422;2024-02-04T02:50:41;101389.16;;;5.42;98.60
81352;BME280;70809;52.184;13.422;2024-02-04T02:51:42;101388.22;;;5.40;98.89
81352;BME280;70809;52.184;13.422;2024-02-04T02:52:44;101399.66;;;5.42;99.05
81352;BME280;70809;52.184;13.422;2024-02-04T02:53:46;101395.53;;;5.47;99.30
81352;BME280;70809;52.184;13.422;2024-02-04T02:54:47;101394.28;;;5.39;99.13
81352;BME280;70809;52.184;13.422;2024-02-04T02:55:50;101391.56;;;5.38;99.33
81352;BME280;70809;52.184;13.422;2024-02-04T02:56:52;101389.94;;;5.40;99.61
81352;BME280;70809;52.184;13.422;2024-02-04T02:57:53;101396.75;;;5.36;99.11
81352;BME280;70809;52.184;13.422;2024-02-04T02:58:55;101402.78;;;5.33;99.19
81352;BME280;70809;52.184;13.422;2024-02-04T02:59:56;101402.94;;;5.38;99.21
81352;BME280;70809;52.184;13.422;2024-02-04T03:00:58;101402.16;;;5.39;98.94
81352;BME280;70809;52.184;13.422;2024-02-04T03:02:00;101403.66;;;5.34;99.27
81352;BME280;70809;52.184;13.422;2024-02-04T03:03:01;101402.56;;;5.29;99.30
81352;BME280;70809;52.184;13.422;2024-02-04T03:04:03;101407.09;;;5.33;99.95
81352;BME280;70809;52.184;13.422;2024-02-04T03:05:05;101399.44;;;5.38;98.98
81352;BME280;70809;52.184;13.422;2024-02-04T03:06:07;101410.13;;;5.42;98.50
81352;BME280;70809;52.184;13.422;2024-02-04T03:07:08;101405.50;;;5.37;98.67
81352;BME280;70809;52.184;13.422;2024-02-04T03:08:10;101401.38;;;5.42;98.42
81352;BME280;70809;52.184;13.422;2024-02-04T03:09:12;101403.66;;;5.34;98.42
81352;BME280;70809;52.184;13.422;2024-02-04T03:10:13;101398.75;;;5.42;98.14
81352;BME280;70809;52.184;13.422;2024-02-04T03:11:16;101401.31;;;5.40;98.36
81352;BME280;70809;52.184;13.422;2024-02-04T03:12:18;101401.03;;;5.34;98.79
81352;BME280;70809;52.184;13.422;2024-02-04T03:13:20;101394.19;;;5.38;98.35
81352;BME280;70809;52.184;13.422;2024-02-04T03:14:22;101394.41;;;5.42;98.11
81352;BME280;70809;52.184;13.422;2024-02-04T03:15:23;101403.94;;;5.40;98.18
81352;BME280;70809;52.184;13.422;2024-02-04T03:16:25;101418.66;;;5.38;97.51
81352;BME280;70809;52.184;13.422;2024-02-04T03:17:27;101407.91;;;5.32;98.00
81352;BME280;70809;52.184;13.422;2024-02-04T03:18:28;101411.16;;;5.26;99.32
81352;BME280;70809;52.184;13.422;2024-02-04T03:19:30;101406.97;;;5.30;98.96
81352;BME280;70809;52.184;13.422;2024-02-04T03:20:31;101417.44;;;5.30;98.46
81352;BME280;70809;52.184;13.422;2024-02-04T03:21:33;101416.81;;;5.36;97.86
81352;BME280;70809;52.184;13.422;2024-02-04T03:22:34;101414.19;;;5.36;98.00
81352;BME280;70809;52.184;13.422;2024-02-04T03:23:36;101409.84;;;5.36;97.77
81352;BME280;70809;52.184;13.422;2024-02-04T03:24:37;101411.53;;;5.34;97.76
81352;BME280;70809;52.184;13.422;2024-02-04T03:25:40;101420.34;;;5.36;97.75
81352;BME280;70809;52.184;13.422;2024-02-04T03:26:42;101408.47;;;5.44;97.15
81352;BME280;70809;52.184;13.422;2024-02-04T03:27:44;101418.66;;;5.38;98.17
81352;BME280;70809;52.184;13.422;2024-02-04T03:28:46;101424.19;;;5.44;96.87
81352;BME280;70809;52.184;13.422;2024-02-04T03:29:47;101417.88;;;5.39;97.53
81352;BME280;70809;52.184;13.422;2024-02-04T03:30:49;101414.88;;;5.31;97.69
81352;BME280;70809;52.184;13.422;2024-02-04T03:31:51;101418.50;;;5.33;97.65
81352;BME280;70809;52.184;13.422;2024-02-04T03:32:53;101417.03;;;5.40;97.54
81352;BME280;70809;52.184;13.422;2024-02-04T03:33:55;101411.69;;;5.39;97.25
81352;BME280;70809;52.184;13.422;2024-02-04T03:34:57;101409.53;;;5.28;97.48
81352;BME280;70809;52.184;13.422;2024-02-04T03:35:58;101418.13;;;5.26;97.50
81352;BME280;70809;52.184;13.422;2024-02-04T03:37:00;101422.00;;;5.34;96.77
81352;BME280;70809;52.184;13.422;2024-02-04T03:38:02;101420.94;;;5.30;97.62
81352;BME280;70809;52.184;13.422;2024-02-04T03:39:04;101415.03;;;5.35;97.18
81352;BME280;70809;52.184;13.422;2024-02-04T03:40:06;101404.34;;;5.30;97.05
81352;BME280;70809;52.184;13.422;2024-02-04T03:41:09;101408.13;;;5.37;97.03
81352;BME280;70809;52.184;13.422;2024-02-04T03:42:11;101404.69;;;5.38;96.90
81352;BME280;70809;52.184;13.422;2024-02-04T03:43:13;101393.19;;;5.34;96.02
81352;BME280;70809;52.184;13.422;2024-02-04T03:44:15;101404.34;;;5.30;96.39
81352;BME280;70809;52.184;13.422;2024-02-04T03:45:16;101396.69;;;5.35;95.93
81352;BME280;70809;52.184;13.422;2024-02-04T03:46:18;101398.47;;;5.36;95.83
81352;BME280;70809;52.184;13.422;2024-02-04T03:47:20;101400.28;;;5.37;95.68
81352;BME280;70809;52.184;13.422;2024-02-04T03:48:21;101392.63;;;5.41;95.42
81352;BME280;70809;52.184;13.422;2024-02-04T03:49:23;101384.44;;;5.33;95.43
81352;BME280;70809;52.184;13.422;2024-02-04T03:50:25;101391.38;;;5.33;95.92
81352;BME280;70809;52.184;13.422;2024-02-04T03:51:26;101388.84;;;5.35;95.67
81352;BME280;70809;52.184;13.422;2024-02-04T03:52:28;101387.84;;;5.32;95.35
81352;BME280;70809;52.184;13.422;2024-02-04T03:53:29;101387.31;;;5.40;94.99
81352;BME280;70809;52.184;13.422;2024-02-04T03:54:31;101387.72;;;5.49;94.17
81352;BME280;70809;52.184;13.422;2024-02-04T03:55:33;101389.31;;;5.45;94.48
81352;BME280;70809;52.184;13.422;2024-02-04T03:56:34;101384.16;;;5.47;93.88
81352;BME280;70809;52.184;13.422;2024-02-04T03:57:37;101385.88;;;5.46;94.51
81352;BME280;70809;52.184;13.422;2024-02-04T03:58:39;101384.81;;;5.43;93.96
81352;BME280;70809;52.184;13.422;2024-02-04T03:59:44;101388.59;;;5.49;94.09
81352;BME280;70809;52.184;13.422;2024-02-04T04:00:46;101392.84;;;5.46;94.32
81352;BME280;70809;52.184;13.422;2024-02-04T04:01:48;101391.22;;;5.49;93.40
81352;BME280;70809;52.184;13.422;2024-02-04T04:02:49;101385.78;;;5.45;93.53
81352;BME280;70809;52.184;13.422;2024-02-04T04:03:51;101378.84;;;5.45;94.18
81352;BME280;70809;52.184;13.422;2024-02-04T04:04:53;101389.44;;;5.48;94.32
81352;BME280;70809;52.184;13.422;2024-02-04T04:05:54;101382.22;;;5.43;94.11
81352;BME280;70809;52.184;13.422;2024-02-04T04:06:56;101378.41;;;5.36;94.20
81352;BME280;70809;52.184;13.422;2024-02-04T04:07:58;101378.84;;;5.45;94.46
81352;BME280;70809;52.184;13.422;2024-02-04T04:08:59;101371.66;;;5.41;94.05
81352;BME280;70809;52.184;13.422;2024-02-04T04:10:01;101380.88;;;5.33;94.25
81352;BME280;70809;52.184;13.422;2024-02-04T04:11:03;101373.44;;;5.42;93.64
81352;BME280;70809;52.184;13.422;2024-02-04T04:12:05;101375.13;;;5.40;93.82
81352;BME280;70809;52.184;13.422;2024-02-04T04:13:08;101386.84;;;5.29;94.35
81352;BME280;70809;52.184;13.422;2024-02-04T04:14:10;101375.84;;;5.38;93.76
81352;BME280;70809;52.184;13.422;2024-02-04T04:15:11;101367.94;;;5.36;94.21
81352;BME280;70809;52.184;13.422;2024-02-04T04:16:13;101370.88;;;5.44;93.53
81352;BME280;70809;52.184;13.422;2024-02-04T04:17:14;101372.78;;;5.46;93.48
81352;BME280;70809;52.184;13.422;2024-02-04T04:18:16;101373.19;;;5.36;93.35
81352;BME280;70809;52.184;13.422;2024-02-04T04:19:18;101363.31;;;5.30;93.73
81352;BME280;70809;52.184;13.422;2024-02-04T04:20:20;101367.66;;;5.30;93.96
81352;BME280;70809;52.184;13.422;2024-02-04T04:21:21;101363.38;;;5.32;93.87
81352;BME280;70809;52.184;13.422;2024-02-04T04:22:23;101359.13;;;5.34;93.96
81352;BME280;70809;52.184;13.422;2024-02-04T04:23:24;101357.19;;;5.30;93.78
81352;BME280;70809;52.184;13.422;2024-02-04T04:24:26;101359.88;;;5.31;93.12
81352;BME280;70809;52.184;13.422;2024-02-04T04:25:27;101349.66;;;5.38;93.49
81352;BME280;70809;52.184;13.422;2024-02-04T04:26:29;101360.91;;;5.35;93.23
81352;BME280;70809;52.184;13.422;2024-02-04T04:27:30;101355.06;;;5.41;93.10
81352;BME280;70809;52.184;13.422;2024-02-04T04:28:34;101355.78;;;5.38;92.89
81352;BME280;70809;52.184;13.422;2024-02-04T04:29:35;101360.69;;;5.30;93.86
81352;BME280;70809;52.184;13.422;2024-02-04T04:30:37;101362.28;;;5.27;94.02
81352;BME280;70809;52.184;13.422;2024-02-04T04:31:38;101365.00;;;5.28;93.26
81352;BME280;70809;52.184;13.422;2024-02-04T04:32:40;101357.25;;;5.31;94.05
81352;BME280;70809;52.184;13.422;2024-02-04T04:33:42;101359.25;;;5.37;93.54
81352;BME280;70809;52.184;13.422;2024-02-04T04:34:44;101357.88;;;5.26;93.96
81352;BME280;70809;52.184;13.422;2024-02-04T04:35:45;101355.25;;;5.26;93.32
81352;BME280;70809;52.184;13.422;2024-02-04T04:36:47;101358.13;;;5.32;93.38
81352;BME280;70809;52.184;13.422;2024-02-04T04:37:49;101358.03;;;5.29;93.03
81352;BME280;70809;52.184;13.422;2024-02-04T04:38:50;101364.56;;;5.19;93.46
81352;BME280;70809;52.184;13.422;2024-02-04T04:39:52;101360.44;;;5.24;93.56
81352;BME280;70809;52.184;13.422;2024-02-04T04:40:53;101358.69;;;5.25;93.20
81352;BME280;70809;52.184;13.422;2024-02-04T04:41:56;101353.41;;;5.23;93.08
81352;BME280;70809;52.184;13.422;2024-02-04T04:42:58;101359.66;;;5.27;93.73
81352;BME280;70809;52.184;13.422;2024-02-04T04:44:01;101350.56;;;5.19;93.18
81352;BME280;70809;52.184;13.422;2024-02-04T04:45:03;101347.28;;;5.23;93.16
81352;BME280;70809;52.184;13.422;2024-02-04T04:46:04;101354.31;;;5.24;92.43
81352;BME280;70809;52.184;13.422;2024-02-04T04:47:06;101354.16;;;5.21;92.97
81352;BME280;70809;52.184;13.422;2024-02-04T04:48:08;101352.16;;;5.15;93.71
81352;BME280;70809;52.184;13.422;2024-02-04T04:49:09;101344.22;;;5.14;93.42
81352;BME280;70809;52.184;13.422;2024-02-04T04:50:11;101345.75;;;5.09;93.86
81352;BME280;70809;52.184;13.422;2024-02-04T04:51:13;101338.25;;;5.16;93.36
81352;BME280;70809;52.184;13.422;2024-02-04T04:52:16;101342.44;;;5.13;93.34
81352;BME280;70809;52.184;13.422;2024-02-04T04:53:17;101342.38;;;5.11;93.78
81352;BME280;70809;52.184;13.422;2024-02-04T04:54:19;101342.72;;;5.19;93.92
81352;BME280;70809;52.184;13.422;2024-02-04T04:55:21;101331.69;;;5.26;92.96
81352;BME280;70809;52.184;13.422;2024-02-04T04:56:22;101332.38;;;5.22;93.46
81352;BME280;70809;52.184;13.422;2024-02-04T04:57:24;101338.38;;;5.19;93.19
81352;BME280;70809;52.184;13.422;2024-02-04T04:58:25;101335.69;;;5.18;93.08
81352;BME280;70809;52.184;13.422;2024-02-04T04:59:28;101330.50;;;5.19;93.25
81352;BME280;70809;52.184;13.422;2024-02-04T05:00:30;101331.06;;;5.12;93.02
81352;BME280;70809;52.184;13.422;2024-02-04T05:01:31;101329.84;;;5.23;93.24
81352;BME280;70809;52.184;13.422;2024-02-04T05:02:33;101325.34;;;5.21;93.32
81352;BME280;70809;52.184;13.422;2024-02-04T05:03:35;101336.69;;;5.21;93.05
81352;BME280;70809;52.184;13.422;2024-02-04T05:04:36;101330.56;;;5.21;92.63
81352;BME280;70809;52.184;13.422;2024-02-04T05:05:38;101334.84;;;5.19;93.50
81352;BME280;70809;52.184;13.422;2024-02-04T05:06:40;101330.44;;;5.18;93.15
81352;BME280;70809;52.184;13.422;2024-02-04T05:07:42;101322.66;;;5.19;93.50
81352;BME280;70809;52.184;13.422;2024-02-04T05:08:43;101317.28;;;5.16;94.09
81352;BME280;70809;52.184;13.422;2024-02-04T05:09:45;101321.56;;;5.14;93.63
81352;BME280;70809;52.184;13.422;2024-02-04T05:10:47;101325.00;;;5.13;93.64
81352;BME280;70809;52.184;13.422;2024-02-04T05:11:48;101316.09;;;5.10;93.99
81352;BME280;70809;52.184;13.422;2024-02-04T05:12:50;101323.22;;;5.12;93.12
81352;BME280;70809;52.184;13.422;2024-02-04T05:13:51;101318.88;;;5.13;93.89
81352;BME280;70809;52.184;13.422;2024-02-04T05:14:54;101316.25;;;5.13;93.95
81352;BME280;70809;52.184;13.422;2024-02-04T05:15:56;101323.16;;;5.11;93.77
81352;BME280;70809;52.184;13.422;2024-02-04T05:16:58;101318.66;;;5.08;94.41
81352;BME280;70809;52.184;13.422;2024-02-04T05:17:59;101309.22;;;5.12;93.89
81352;BME280;70809;52.184;13.422;2024-02-04T05:19:01;101306.25;;;5.23;93.17
81352;BME280;70809;52.184;13.422;2024-02-04T05:20:03;101312.38;;;5.24;93.22
81352;BME280;70809;52.184;13.422;2024-02-04T05:21:05;101307.91;;;5.21;93.12
81352;BME280;70809;52.184;13.422;2024-02-04T05:22:07;101303.44;;;5.19;93.35
81352;BME280;70809;52.184;13.422;2024-02-04T05:23:08;101302.38;;;5.15;93.89
81352;BME280;70809;52.184;13.422;2024-02-04T05:24:10;101296.34;;;5.16;92.63
81352;BME280;70809;52.184;13.422;2024-02-04T05:25:11;101306.47;;;5.09;93.39